Time;durP1;ratioP1;P1;durP2;ratioP2;P2;SDS_P1;SDS_P2;PMS_P1;PMS_P2;Temp;Humidity;BMP_temperature;BMP_pressure;BME280_temperature;BME280_humidity;BME280_pressure;Samples;Min_cycle;Max_cycle;Signal;HPM_P1;HPM_P2
2021/10/14 00:00:59;;;;;;;5.15;2.08;;;;;;;;;;6308389;22;20554;-62
2021/10/14 00:03:25;;;;;;;2.47;1.90;;;;;;;;;;6308091;22;20146;-62
2021/10/14 00:05:51;;;;;;;3.50;2.17;;;;;;;;;;6307977;22;20503;-62
2021/10/14 00:08:17;;;;;;;3.20;2.08;;;;;;;;;;6308483;22;20226;-62
2021/10/14 00:10:43;;;;;;;2.35;2.10;;;;;;;;;;6308087;22;20143;-62
2021/10/14 00:13:09;;;;;;;2.95;1.80;;;;;;;;;;6308754;22;20489;-62
2021/10/14 00:15:35;;;;;;;3.13;2.20;;;;;;;;;;6308311;22;20142;-62
2021/10/14 00:18:01;;;;;;;2.53;2.00;;;;;;;;;;6308376;22;20519;-62
2021/10/14 00:20:27;;;;;;;2.28;1.80;;;;;;;;;;6308062;22;20158;-62
2021/10/14 00:22:53;;;;;;;2.05;1.85;;;;;;;;;;6308155;22;20139;-62
2021/10/14 00:25:21;;;;;;;2.42;2.08;;;;;;;;;;6307893;22;20154;-62
2021/10/14 00:27:47;;;;;;;2.10;1.90;;;;;;;;;;6308808;22;20123;-62
2021/10/14 00:30:13;;;;;;;2.20;2.00;;;;;;;;;;6308125;22;20223;-62
2021/10/14 00:32:39;;;;;;;2.17;1.98;;;;;;;;;;6309230;22;20545;-62
2021/10/14 00:35:06;;;;;;;2.28;2.08;;;;;;;;;;6309965;22;20167;-61
2021/10/14 00:37:31;;;;;;;2.67;2.47;;;;;;;;;;6308148;22;20167;-62
2021/10/14 00:39:57;;;;;;;2.90;2.10;;;;;;;;;;6308570;22;20174;-62
2021/10/14 00:42:23;;;;;;;3.10;2.30;;;;;;;;;;6308886;22;20620;-62
2021/10/14 00:44:50;;;;;;;2.33;2.10;;;;;;;;;;6308743;22;20439;-62
2021/10/14 00:47:23;;;;;;;2.92;2.33;;;;;;;;;;6308578;22;20150;-62
2021/10/14 00:49:50;;;;;;;2.53;2.33;;;;;;;;;;6308363;22;20442;-62
2021/10/14 00:52:16;;;;;;;2.47;2.22;;;;;;;;;;6308094;22;20570;-62
2021/10/14 00:54:42;;;;;;;2.35;2.10;;;;;;;;;;6308357;22;20173;-61
2021/10/14 00:57:08;;;;;;;2.60;2.35;;;;;;;;;;6307783;22;20166;-62
2021/10/14 00:59:38;;;;;;;2.80;2.50;;;;;;;;;;6308174;22;20451;-62
2021/10/14 01:02:04;;;;;;;3.10;2.55;;;;;;;;;;6307696;22;20224;-62
2021/10/14 01:04:30;;;;;;;3.03;2.45;;;;;;;;;;6308210;22;20141;-62
2021/10/14 01:06:56;;;;;;;3.70;2.80;;;;;;;;;;6307523;22;20170;-62
2021/10/14 01:09:22;;;;;;;2.88;2.58;;;;;;;;;;6280785;22;20159;-62
2021/10/14 01:11:47;;;;;;;3.45;3.15;;;;;;;;;;6308031;22;20589;-61
2021/10/14 01:14:13;;;;;;;3.75;3.33;;;;;;;;;;6307735;22;20557;-62
2021/10/14 01:16:40;;;;;;;5.18;3.97;;;;;;;;;;6307660;22;20167;-61
2021/10/14 01:19:07;;;;;;;4.82;3.70;;;;;;;;;;6307891;22;20222;-62
2021/10/14 01:21:33;;;;;;;5.88;4.63;;;;;;;;;;6307517;22;20226;-62
2021/10/14 01:24:01;;;;;;;5.93;4.88;;;;;;;;;;6307638;22;20159;-62
2021/10/14 01:26:28;;;;;;;6.38;4.95;;;;;;;;;;6307405;22;20554;-62
2021/10/14 01:28:54;;;;;;;6.28;5.32;;;;;;;;;;6307573;22;20443;-62
2021/10/14 01:31:22;;;;;;;5.18;4.25;;;;;;;;;;6307505;22;20204;-60
2021/10/14 01:33:48;;;;;;;7.45;6.00;;;;;;;;;;6307871;22;20142;-62
2021/10/14 01:36:14;;;;;;;6.82;5.35;;;;;;;;;;6307397;22;20134;-61
2021/10/14 01:38:40;;;;;;;8.65;5.45;;;;;;;;;;6307414;22;20458;-62
2021/10/14 01:41:06;;;;;;;6.75;4.95;;;;;;;;;;6307257;22;20148;-62
2021/10/14 01:43:33;;;;;;;7.88;5.88;;;;;;;;;;6307770;22;20146;-61
2021/10/14 01:45:59;;;;;;;6.60;4.85;;;;;;;;;;6307343;22;20139;-62
2021/10/14 01:48:27;;;;;;;7.85;5.47;;;;;;;;;;6307386;22;20474;-62
2021/10/14 01:50:53;;;;;;;7.45;5.80;;;;;;;;;;6307191;22;20597;-61
2021/10/14 01:53:19;;;;;;;8.63;5.85;;;;;;;;;;6307272;22;20207;-62
2021/10/14 01:55:45;;;;;;;8.70;5.53;;;;;;;;;;6307201;22;20145;-62
2021/10/14 01:58:11;;;;;;;9.85;6.22;;;;;;;;;;6307265;22;20491;-62
2021/10/14 02:00:37;;;;;;;7.93;6.18;;;;;;;;;;6307561;22;20157;-62
2021/10/14 02:03:03;;;;;;;8.32;6.20;;;;;;;;;;6308005;22;20233;-62
2021/10/14 02:05:29;;;;;;;8.45;5.80;;;;;;;;;;6307350;22;20167;-62
2021/10/14 02:07:55;;;;;;;7.38;5.53;;;;;;;;;;6307175;22;20441;-62
2021/10/14 02:10:21;;;;;;;7.45;5.40;;;;;;;;;;6307274;22;20185;-62
2021/10/14 02:12:47;;;;;;;8.02;4.90;;;;;;;;;;6307107;22;20214;-62
2021/10/14 02:15:13;;;;;;;6.90;4.95;;;;;;;;;;6307539;22;20147;-62
2021/10/14 02:17:39;;;;;;;6.25;4.82;;;;;;;;;;6307046;22;20439;-62
2021/10/14 02:20:05;;;;;;;7.25;4.80;;;;;;;;;;6308391;22;20139;-61
2021/10/14 02:22:31;;;;;;;6.20;4.55;;;;;;;;;;6309128;22;20150;-62
2021/10/14 02:24:58;;;;;;;6.50;4.55;;;;;;;;;;6309023;22;20546;-62
2021/10/14 02:27:23;;;;;;;5.60;4.15;;;;;;;;;;6309065;22;20131;-62
2021/10/14 02:29:49;;;;;;;6.32;4.43;;;;;;;;;;6309154;22;20415;-62
2021/10/14 02:32:15;;;;;;;6.70;4.75;;;;;;;;;;6309030;22;20154;-61
2021/10/14 02:34:41;;;;;;;6.45;4.38;;;;;;;;;;6309086;22;20158;-62
2021/10/14 02:37:07;;;;;;;6.93;4.68;;;;;;;;;;6308901;22;20194;-62
2021/10/14 02:39:33;;;;;;;6.50;4.15;;;;;;;;;;6309021;22;20170;-61
2021/10/14 02:41:59;;;;;;;9.10;5.05;;;;;;;;;;6308934;22;20149;-62
2021/10/14 02:44:25;;;;;;;5.50;4.60;;;;;;;;;;6309045;22;20135;-62
2021/10/14 02:46:53;;;;;;;7.82;4.57;;;;;;;;;;6308925;22;20147;-62
2021/10/14 02:49:19;;;;;;;6.57;4.30;;;;;;;;;;6309307;22;20558;-61
2021/10/14 02:51:45;;;;;;;11.50;4.53;;;;;;;;;;6309721;22;20143;-62
2021/10/14 02:54:10;;;;;;;6.72;3.83;;;;;;;;;;6310045;22;20153;-62
2021/10/14 02:56:36;;;;;;;9.10;5.00;;;;;;;;;;6309133;22;20155;-62
2021/10/14 02:59:02;;;;;;;13.40;5.47;;;;;;;;;;6308891;22;20149;-62
2021/10/14 03:01:28;;;;;;;7.60;3.92;;;;;;;;;;6309077;22;20143;-62
2021/10/14 03:03:54;;;;;;;7.18;4.35;;;;;;;;;;6309104;22;20437;-62
2021/10/14 03:06:20;;;;;;;9.10;4.78;;;;;;;;;;6309019;22;20154;-62
2021/10/14 03:08:46;;;;;;;7.82;4.63;;;;;;;;;;6308767;22;20139;-62
2021/10/14 03:11:12;;;;;;;7.35;4.18;;;;;;;;;;6308747;22;20189;-62
2021/10/14 03:13:38;;;;;;;13.13;4.75;;;;;;;;;;6308607;22;20181;-62
2021/10/14 03:16:04;;;;;;;7.90;4.43;;;;;;;;;;6309111;22;20200;-61
2021/10/14 03:18:31;;;;;;;7.53;4.43;;;;;;;;;;6309025;22;20170;-60
2021/10/14 03:20:57;;;;;;;9.18;4.40;;;;;;;;;;6309215;22;20154;-61
2021/10/14 03:23:22;;;;;;;11.95;5.07;;;;;;;;;;6309043;22;20135;-61
2021/10/14 03:25:48;;;;;;;8.32;4.78;;;;;;;;;;6308656;22;20150;-62
2021/10/14 03:28:14;;;;;;;10.55;5.47;;;;;;;;;;6308497;22;20146;-62
2021/10/14 03:30:40;;;;;;;12.30;5.78;;;;;;;;;;6308581;22;20485;-61
2021/10/14 03:33:06;;;;;;;11.18;5.90;;;;;;;;;;6308479;22;20154;-61
2021/10/14 03:35:32;;;;;;;9.00;5.10;;;;;;;;;;6308535;22;20166;-61
2021/10/14 03:37:58;;;;;;;9.32;5.13;;;;;;;;;;6309074;22;20249;-61
2021/10/14 03:40:24;;;;;;;11.82;5.85;;;;;;;;;;6308824;22;20135;-61
2021/10/14 03:42:50;;;;;;;9.68;5.50;;;;;;;;;;6308406;22;20139;-61
2021/10/14 03:45:16;;;;;;;9.23;5.60;;;;;;;;;;6308633;22;20157;-62
2021/10/14 03:47:42;;;;;;;13.63;5.70;;;;;;;;;;6308470;22;20146;-60
2021/10/14 03:50:09;;;;;;;12.05;5.88;;;;;;;;;;6308767;22;20151;-62
2021/10/14 03:52:35;;;;;;;10.15;5.80;;;;;;;;;;6308668;22;20153;-61
2021/10/14 03:55:01;;;;;;;13.00;5.50;;;;;;;;;;6308842;22;20241;-61
2021/10/14 03:57:27;;;;;;;9.52;4.95;;;;;;;;;;6308505;22;20200;-61
2021/10/14 03:59:53;;;;;;;8.60;5.55;;;;;;;;;;6308742;22;20135;-62
2021/10/14 04:02:20;;;;;;;10.00;5.13;;;;;;;;;;6308385;22;20145;-62
2021/10/14 04:04:45;;;;;;;8.00;5.40;;;;;;;;;;6308337;22;20432;-62
2021/10/14 04:07:11;;;;;;;9.95;5.75;;;;;;;;;;6308307;22;20149;-62
2021/10/14 04:09:37;;;;;;;10.02;5.40;;;;;;;;;;6308446;22;20491;-62
2021/10/14 04:12:03;;;;;;;9.23;5.45;;;;;;;;;;6308766;22;20142;-61
2021/10/14 04:14:29;;;;;;;10.68;5.50;;;;;;;;;;6308620;22;20143;-62
2021/10/14 04:16:56;;;;;;;11.50;5.93;;;;;;;;;;6308684;22;20223;-62
2021/10/14 04:19:21;;;;;;;11.05;6.30;;;;;;;;;;6308679;22;20557;-62
2021/10/14 04:21:48;;;;;;;11.45;6.13;;;;;;;;;;6308851;22;20166;-62
2021/10/14 04:24:15;;;;;;;12.95;7.30;;;;;;;;;;6308933;22;20554;-62
2021/10/14 04:26:41;;;;;;;12.18;6.88;;;;;;;;;;6308510;22;20565;-62
2021/10/14 04:29:06;;;;;;;10.77;6.78;;;;;;;;;;6308768;22;20135;-62
2021/10/14 04:31:34;;;;;;;13.57;6.57;;;;;;;;;;6308802;22;20668;-62
2021/10/14 04:34:00;;;;;;;11.60;7.50;;;;;;;;;;6308382;22;20435;-62
2021/10/14 04:36:26;;;;;;;14.32;6.68;;;;;;;;;;6308403;22;20145;-62
2021/10/14 04:38:53;;;;;;;14.55;6.63;;;;;;;;;;6308702;22;20145;-62
2021/10/14 04:41:19;;;;;;;15.15;8.07;;;;;;;;;;6308618;22;20139;-62
2021/10/14 04:43:44;;;;;;;10.48;6.80;;;;;;;;;;6308159;22;20203;-62
2021/10/14 04:46:10;;;;;;;12.48;6.80;;;;;;;;;;6308253;22;20215;-62
2021/10/14 04:48:36;;;;;;;8.50;4.82;;;;;;;;;;6308458;22;20143;-62
2021/10/14 04:51:02;;;;;;;11.20;5.18;;;;;;;;;;6308541;22;20139;-62
2021/10/14 04:53:28;;;;;;;9.95;4.50;;;;;;;;;;6308057;22;20145;-62
2021/10/14 04:55:54;;;;;;;10.27;5.07;;;;;;;;;;6308184;22;20149;-62
2021/10/14 04:58:20;;;;;;;10.50;4.43;;;;;;;;;;6307766;22;20169;-62
2021/10/14 05:00:46;;;;;;;8.55;3.75;;;;;;;;;;6307787;22;20139;-62
2021/10/14 05:03:12;;;;;;;9.18;3.72;;;;;;;;;;6307807;22;20709;-62
2021/10/14 05:05:38;;;;;;;8.15;3.88;;;;;;;;;;6307974;22;20215;-62
2021/10/14 05:08:04;;;;;;;9.20;4.05;;;;;;;;;;6308099;22;20151;-62
2021/10/14 05:10:31;;;;;;;7.65;4.22;;;;;;;;;;6307775;22;20150;-62
2021/10/14 05:12:57;;;;;;;6.93;4.18;;;;;;;;;;6307700;22;20143;-61
2021/10/14 05:15:24;;;;;;;8.48;4.22;;;;;;;;;;6307489;22;20564;-62
2021/10/14 05:17:50;;;;;;;8.40;4.65;;;;;;;;;;6307807;22;20174;-62
2021/10/14 05:20:16;;;;;;;8.80;4.43;;;;;;;;;;6307677;22;20510;-62
2021/10/14 05:22:42;;;;;;;10.00;4.53;;;;;;;;;;6307556;22;20585;-62
2021/10/14 05:25:08;;;;;;;8.27;5.03;;;;;;;;;;6307412;22;20139;-62
2021/10/14 05:27:34;;;;;;;9.95;5.15;;;;;;;;;;6307977;22;20489;-62
2021/10/14 05:30:01;;;;;;;8.63;5.03;;;;;;;;;;6307668;22;20143;-62
2021/10/14 05:32:27;;;;;;;12.05;4.80;;;;;;;;;;6307996;22;20577;-62
2021/10/14 05:34:53;;;;;;;8.52;4.60;;;;;;;;;;6307466;22;20139;-62
2021/10/14 05:37:19;;;;;;;7.53;4.00;;;;;;;;;;6307375;22;20201;-62
2021/10/14 05:39:45;;;;;;;7.63;4.28;;;;;;;;;;6308319;22;20150;-62
2021/10/14 05:42:11;;;;;;;16.40;6.05;;;;;;;;;;6307592;22;20139;-62
2021/10/14 05:44:36;;;;;;;10.73;6.20;;;;;;;;;;6307750;22;20164;-62
2021/10/14 05:47:02;;;;;;;11.82;6.25;;;;;;;;;;6307273;22;20192;-61
2021/10/14 05:49:28;;;;;;;11.05;6.03;;;;;;;;;;6307261;22;20138;-62
2021/10/14 05:51:54;;;;;;;10.65;6.05;;;;;;;;;;6307649;22;20154;-62
2021/10/14 05:54:20;;;;;;;13.48;6.30;;;;;;;;;;6308838;22;20146;-62
2021/10/14 05:56:46;;;;;;;9.98;5.70;;;;;;;;;;6309448;22;20172;-62
2021/10/14 05:59:12;;;;;;;14.73;5.60;;;;;;;;;;6309629;22;20139;-62
2021/10/14 06:01:38;;;;;;;9.95;4.60;;;;;;;;;;6309772;22;20141;-62
2021/10/14 06:04:04;;;;;;;7.93;4.50;;;;;;;;;;6309657;22;20408;-62
2021/10/14 06:06:31;;;;;;;15.85;5.28;;;;;;;;;;6309674;22;20143;-62
2021/10/14 06:08:57;;;;;;;9.02;4.25;;;;;;;;;;6309531;22;20170;-62
2021/10/14 06:11:23;;;;;;;9.45;4.57;;;;;;;;;;6309724;22;20198;-62
2021/10/14 06:13:49;;;;;;;6.97;3.72;;;;;;;;;;6309330;22;20546;-62
2021/10/14 06:16:15;;;;;;;7.22;4.05;;;;;;;;;;6309513;22;20139;-62
2021/10/14 06:18:41;;;;;;;11.30;4.32;;;;;;;;;;6308879;22;20159;-62
2021/10/14 06:21:07;;;;;;;7.05;3.60;;;;;;;;;;6309147;22;20217;-62
2021/10/14 06:23:33;;;;;;;7.75;3.70;;;;;;;;;;6309061;22;20139;-62
2021/10/14 06:25:59;;;;;;;6.72;3.47;;;;;;;;;;6308906;22;20151;-62
2021/10/14 06:28:25;;;;;;;6.20;3.97;;;;;;;;;;6308966;22;20204;-62
2021/10/14 06:30:51;;;;;;;6.78;3.65;;;;;;;;;;6308729;22;20419;-62
2021/10/14 06:33:17;;;;;;;10.15;4.13;;;;;;;;;;6308744;22;20206;-62
2021/10/14 06:35:43;;;;;;;10.45;3.90;;;;;;;;;;6308611;22;20245;-62
2021/10/14 06:38:09;;;;;;;8.35;3.53;;;;;;;;;;6308786;22;20213;-62
2021/10/14 06:40:35;;;;;;;9.75;3.42;;;;;;;;;;6308893;22;20139;-62
2021/10/14 06:43:01;;;;;;;8.80;3.28;;;;;;;;;;6308751;22;20583;-62
2021/10/14 06:45:27;;;;;;;7.95;2.63;;;;;;;;;;6308762;22;20146;-62
2021/10/14 06:47:53;;;;;;;7.05;2.90;;;;;;;;;;6308657;22;20139;-62
2021/10/14 06:50:19;;;;;;;4.70;3.28;;;;;;;;;;6308580;22;20142;-62
2021/10/14 06:52:44;;;;;;;6.75;2.60;;;;;;;;;;6309051;22;20196;-62
2021/10/14 06:55:10;;;;;;;6.47;2.88;;;;;;;;;;6308625;22;20142;-62
2021/10/14 06:57:36;;;;;;;9.55;2.78;;;;;;;;;;6308703;22;20167;-62
2021/10/14 07:00:05;;;;;;;5.35;2.25;;;;;;;;;;6308918;22;20214;-62
2021/10/14 07:02:30;;;;;;;5.70;2.20;;;;;;;;;;6308391;22;20139;-62
2021/10/14 07:04:56;;;;;;;3.95;2.50;;;;;;;;;;6307743;22;20142;-62
2021/10/14 07:07:22;;;;;;;5.32;2.47;;;;;;;;;;6308844;22;20143;-62
2021/10/14 07:09:48;;;;;;;3.97;1.70;;;;;;;;;;6308268;22;20550;-62
2021/10/14 07:12:15;;;;;;;5.72;1.73;;;;;;;;;;6308471;22;20545;-62
2021/10/14 07:14:41;;;;;;;3.40;1.70;;;;;;;;;;6308528;22;20185;-62
2021/10/14 07:17:07;;;;;;;5.10;1.52;;;;;;;;;;6308447;22;20174;-62
2021/10/14 07:19:35;;;;;;;4.60;1.90;;;;;;;;;;6308311;22;20139;-62
2021/10/14 07:22:01;;;;;;;3.22;1.60;;;;;;;;;;6308181;22;20540;-62
2021/10/14 07:24:28;;;;;;;2.60;1.65;;;;;;;;;;6308227;22;20585;-62
2021/10/14 07:26:53;;;;;;;2.70;1.75;;;;;;;;;;6308423;22;20220;-62
2021/10/14 07:29:20;;;;;;;3.97;1.60;;;;;;;;;;6308241;22;20143;-62
2021/10/14 07:31:46;;;;;;;4.10;1.90;;;;;;;;;;6308698;22;20154;-62
2021/10/14 07:34:12;;;;;;;5.88;1.55;;;;;;;;;;6308666;22;20143;-62
2021/10/14 07:36:37;;;;;;;3.17;1.70;;;;;;;;;;6308233;22;20143;-62
2021/10/14 07:39:03;;;;;;;3.45;1.50;;;;;;;;;;6308408;22;20139;-62
2021/10/14 07:41:30;;;;;;;4.72;1.80;;;;;;;;;;6308179;22;20139;-62
2021/10/14 07:43:56;;;;;;;3.10;2.10;;;;;;;;;;6308345;22;20138;-62
2021/10/14 07:46:22;;;;;;;5.60;2.63;;;;;;;;;;6308323;22;20553;-62
2021/10/14 07:48:48;;;;;;;4.00;2.40;;;;;;;;;;6308859;22;20171;-62
2021/10/14 07:51:14;;;;;;;6.22;2.42;;;;;;;;;;6308241;22;20197;-62
2021/10/14 07:53:40;;;;;;;6.75;2.42;;;;;;;;;;6308340;22;20139;-62
2021/10/14 07:56:06;;;;;;;6.03;2.55;;;;;;;;;;6308242;22;20139;-62
2021/10/14 07:58:32;;;;;;;4.50;1.92;;;;;;;;;;6308601;22;20167;-62
2021/10/14 08:00:58;;;;;;;3.78;1.88;;;;;;;;;;6308654;22;20138;-62
2021/10/14 08:03:24;;;;;;;6.10;2.17;;;;;;;;;;6308572;22;20146;-62
2021/10/14 08:05:51;;;;;;;3.55;2.25;;;;;;;;;;6308466;22;20139;-63
2021/10/14 08:08:17;;;;;;;5.30;2.20;;;;;;;;;;6308595;22;20441;-62
2021/10/14 08:10:43;;;;;;;5.28;2.13;;;;;;;;;;6308180;22;20139;-62
2021/10/14 08:13:13;;;;;;;4.45;2.38;;;;;;;;;;6308291;22;20242;-62
2021/10/14 08:15:41;;;;;;;4.85;2.78;;;;;;;;;;6308510;22;20146;-62
2021/10/14 08:18:07;;;;;;;5.07;2.40;;;;;;;;;;6307696;22;20606;-62
2021/10/14 08:20:33;;;;;;;3.83;2.05;;;;;;;;;;6308618;22;20142;-61
2021/10/14 08:22:59;;;;;;;5.50;2.60;;;;;;;;;;6308346;22;20566;-62
2021/10/14 08:25:25;;;;;;;3.35;2.13;;;;;;;;;;6308238;22;20185;-62
2021/10/14 08:27:51;;;;;;;5.05;2.35;;;;;;;;;;6308428;22;20131;-62
2021/10/14 08:30:17;;;;;;;3.55;2.33;;;;;;;;;;6308209;22;20146;-62
2021/10/14 08:32:43;;;;;;;3.60;2.10;;;;;;;;;;6308239;22;20143;-62
2021/10/14 08:35:12;;;;;;;4.57;2.17;;;;;;;;;;6307873;22;20146;-62
2021/10/14 08:37:38;;;;;;;5.20;2.58;;;;;;;;;;6307927;22;20227;-62
2021/10/14 08:40:05;;;;;;;4.95;2.55;;;;;;;;;;6308588;22;20139;-63
2021/10/14 08:42:30;;;;;;;3.33;2.08;;;;;;;;;;6308330;22;20156;-63
2021/10/14 08:44:59;;;;;;;3.67;2.35;;;;;;;;;;6308168;22;20504;-62
2021/10/14 08:47:25;;;;;;;3.78;2.33;;;;;;;;;;6307866;22;20465;-62
2021/10/14 08:49:51;;;;;;;3.78;2.40;;;;;;;;;;6308286;22;20459;-62
2021/10/14 08:52:17;;;;;;;2.95;2.03;;;;;;;;;;6307765;22;20139;-62
2021/10/14 08:54:43;;;;;;;3.45;2.13;;;;;;;;;;6307923;22;20146;-62
2021/10/14 08:57:09;;;;;;;3.40;2.20;;;;;;;;;;6307749;22;20167;-62
2021/10/14 08:59:37;;;;;;;4.03;2.00;;;;;;;;;;6307779;22;20222;-62
2021/10/14 09:02:10;;;;;;;3.55;2.40;;;;;;;;;;6307622;22;20496;-63
2021/10/14 09:04:40;;;;;;;4.30;2.10;;;;;;;;;;6307459;22;20139;-62
2021/10/14 09:07:09;;;;;;;4.45;2.45;;;;;;;;;;6307568;22;20216;-61
2021/10/14 09:09:38;;;;;;;2.65;1.98;;;;;;;;;;6307767;22;20556;-61
2021/10/14 09:12:05;;;;;;;2.33;1.80;;;;;;;;;;6307533;22;20149;-62
2021/10/14 09:14:31;;;;;;;3.58;1.73;;;;;;;;;;6307922;22;20233;-62
2021/10/14 09:16:57;;;;;;;5.47;2.17;;;;;;;;;;6307722;22;20239;-62
2021/10/14 09:19:24;;;;;;;2.55;1.63;;;;;;;;;;6307983;22;20503;-62
2021/10/14 09:21:51;;;;;;;2.75;1.80;;;;;;;;;;6308477;22;20143;-63
2021/10/14 09:24:26;;;;;;;2.72;1.33;;;;;;;;;;6309234;22;20134;-60
2021/10/14 09:26:52;;;;;;;3.75;1.20;;;;;;;;;;6307481;22;20161;-61
2021/10/14 09:29:20;;;;;;;2.15;0.98;;;;;;;;;;6307911;22;20490;-61
2021/10/14 09:31:47;;;;;;;5.40;1.30;;;;;;;;;;6307553;22;20177;-61
2021/10/14 09:34:25;;;;;;;4.22;2.55;;;;;;;;;;6307794;22;20142;-62
2021/10/14 09:36:51;;;;;;;1.92;1.20;;;;;;;;;;6307446;22;20158;-62
2021/10/14 09:39:19;;;;;;;3.83;0.90;;;;;;;;;;6276514;22;20198;-62
2021/10/14 09:41:45;;;;;;;3.35;1.30;;;;;;;;;;6276639;22;20139;-62
2021/10/14 09:44:15;;;;;;;2.97;1.27;;;;;;;;;;6276379;22;20218;-62
2021/10/14 09:46:46;;;;;;;5.40;1.42;;;;;;;;;;6276326;22;20535;-62
2021/10/14 09:49:20;;;;;;;2.67;1.50;;;;;;;;;;6276649;22;20143;-62
2021/10/14 09:51:47;;;;;;;3.28;1.80;;;;;;;;;;6276157;22;20569;-62
2021/10/14 09:54:13;;;;;;;4.20;1.77;;;;;;;;;;6276518;22;20143;-63
2021/10/14 09:56:39;;;;;;;4.28;1.52;;;;;;;;;;6276217;22;20220;-62
2021/10/14 09:59:05;;;;;;;3.78;1.70;;;;;;;;;;6276278;22;20150;-62
2021/10/14 10:01:32;;;;;;;2.15;1.52;;;;;;;;;;6275838;22;20139;-61
2021/10/14 10:03:58;;;;;;;2.50;1.60;;;;;;;;;;6276305;22;20151;-62
2021/10/14 10:06:28;;;;;;;6.00;2.00;;;;;;;;;;6276272;22;20139;-62
2021/10/14 10:08:56;;;;;;;5.00;1.73;;;;;;;;;;6276241;22;20160;-61
2021/10/14 10:11:23;;;;;;;4.85;2.10;;;;;;;;;;6275929;22;20547;-61
2021/10/14 10:13:53;;;;;;;2.55;2.20;;;;;;;;;;6275951;22;20143;-62
2021/10/14 10:16:20;;;;;;;2.30;1.80;;;;;;;;;;6275869;22;20432;-62
2021/10/14 10:18:50;;;;;;;2.42;1.60;;;;;;;;;;6275885;22;20617;-62
2021/10/14 10:21:38;;;;;;;7.57;1.80;;;;;;;;;;6275507;22;20193;-61
2021/10/14 10:24:05;;;;;;;3.25;1.55;;;;;;;;;;6276102;22;20440;-62
2021/10/14 10:26:34;;;;;;;3.80;1.45;;;;;;;;;;6275671;22;20181;-62
2021/10/14 10:29:20;;;;;;;3.63;1.50;;;;;;;;;;6276245;22;20216;-61
2021/10/14 10:31:50;;;;;;;4.88;1.63;;;;;;;;;;6254706;22;20154;-62
2021/10/14 10:34:38;;;;;;;3.90;1.40;;;;;;;;;;6275904;22;20627;-62
2021/10/14 10:37:11;;;;;;;2.03;1.10;;;;;;;;;;6276005;22;20300;-62
2021/10/14 10:40:03;;;;;;;2.10;1.10;;;;;;;;;;6276244;22;20147;-62
2021/10/14 10:42:41;;;;;;;5.32;1.13;;;;;;;;;;6230494;22;20216;-62
2021/10/14 10:45:11;;;;;;;3.13;0.90;;;;;;;;;;6277922;22;20134;-62
2021/10/14 10:47:39;;;;;;;3.55;1.00;;;;;;;;;;6277448;22;20140;-62
2021/10/14 10:50:06;;;;;;;2.65;0.68;;;;;;;;;;6277647;22;20202;-62
2021/10/14 10:52:36;;;;;;;2.35;0.70;;;;;;;;;;6277896;22;20158;-62
2021/10/14 10:55:11;;;;;;;1.45;0.60;;;;;;;;;;6276131;22;20143;-62
2021/10/14 10:57:47;;;;;;;3.20;0.70;;;;;;;;;;6276540;22;20162;-62
2021/10/14 11:00:13;;;;;;;2.90;0.85;;;;;;;;;;6277763;22;20143;-62
2021/10/14 11:02:39;;;;;;;2.70;0.82;;;;;;;;;;6278411;22;20135;-62
2021/10/14 11:05:05;;;;;;;2.75;0.80;;;;;;;;;;6277244;22;20154;-63
2021/10/14 11:07:31;;;;;;;4.43;0.85;;;;;;;;;;6277705;22;20143;-62
2021/10/14 11:09:57;;;;;;;1.75;0.90;;;;;;;;;;6277849;22;20620;-61
2021/10/14 11:12:23;;;;;;;2.08;0.77;;;;;;;;;;6278134;22;20231;-62
2021/10/14 11:14:49;;;;;;;1.33;0.60;;;;;;;;;;6278192;22;20140;-62
2021/10/14 11:17:16;;;;;;;2.08;0.60;;;;;;;;;;6277605;22;20171;-62
2021/10/14 11:19:42;;;;;;;2.60;0.88;;;;;;;;;;6278322;22;20148;-60
2021/10/14 11:22:12;;;;;;;3.78;0.88;;;;;;;;;;6277512;22;20144;-61
2021/10/14 11:24:45;;;;;;;3.03;0.88;;;;;;;;;;6277482;22;20265;-61
2021/10/14 11:27:14;;;;;;;2.92;0.80;;;;;;;;;;6277559;22;20182;-60
2021/10/14 11:29:43;;;;;;;4.20;1.00;;;;;;;;;;6278358;22;20326;-61
2021/10/14 11:32:12;;;;;;;2.92;1.10;;;;;;;;;;6278057;22;20159;-61
2021/10/14 11:34:40;;;;;;;3.05;1.30;;;;;;;;;;6278248;22;20231;-61
2021/10/14 11:37:06;;;;;;;3.58;1.00;;;;;;;;;;6278274;22;20163;-60
2021/10/14 11:39:34;;;;;;;1.40;1.15;;;;;;;;;;6277875;22;20146;-62
2021/10/14 11:42:01;;;;;;;1.67;1.17;;;;;;;;;;6278332;22;20561;-61
2021/10/14 11:44:28;;;;;;;2.10;1.48;;;;;;;;;;6278046;22;20135;-61
2021/10/14 11:46:54;;;;;;;1.67;0.75;;;;;;;;;;6278329;22;20280;-62
2021/10/14 11:49:20;;;;;;;2.90;1.10;;;;;;;;;;6278023;22;20140;-61
2021/10/14 11:51:49;;;;;;;3.50;1.58;;;;;;;;;;6278130;22;20143;-62
2021/10/14 11:54:19;;;;;;;1.83;1.17;;;;;;;;;;6278703;22;20143;-62
2021/10/14 11:56:46;;;;;;;2.25;1.35;;;;;;;;;;6278187;22;20545;-61
2021/10/14 11:59:13;;;;;;;1.58;1.10;;;;;;;;;;6277846;22;20219;-62
2021/10/14 12:01:48;;;;;;;2.97;1.00;;;;;;;;;;6278082;22;20148;-62
2021/10/14 12:04:16;;;;;;;2.13;1.20;;;;;;;;;;6278304;22;20145;-62
2021/10/14 12:06:42;;;;;;;2.17;0.90;;;;;;;;;;6278444;22;20139;-62
2021/10/14 12:09:08;;;;;;;2.78;1.00;;;;;;;;;;6277836;22;20173;-62
2021/10/14 12:11:34;;;;;;;1.27;0.85;;;;;;;;;;6278380;22;20210;-62
2021/10/14 12:14:01;;;;;;;0.93;0.90;;;;;;;;;;6278850;22;20570;-63
2021/10/14 12:16:28;;;;;;;3.17;1.10;;;;;;;;;;6278451;22;20167;-62
2021/10/14 12:18:54;;;;;;;2.13;1.40;;;;;;;;;;6277929;22;20190;-62
2021/10/14 12:21:31;;;;;;;3.20;1.20;;;;;;;;;;6278113;22;20557;-62
2021/10/14 12:24:15;;;;;;;1.75;1.10;;;;;;;;;;6278461;22;20202;-62
2021/10/14 12:26:43;;;;;;;3.53;1.17;;;;;;;;;;6277963;22;20300;-62
2021/10/14 12:29:19;;;;;;;2.35;1.00;;;;;;;;;;6277890;22;20166;-62
2021/10/14 12:31:45;;;;;;;2.70;1.58;;;;;;;;;;6277881;22;20139;-62
2021/10/14 12:34:11;;;;;;;1.00;0.90;;;;;;;;;;6277742;22;20139;-61
2021/10/14 12:36:43;;;;;;;1.30;1.00;;;;;;;;;;6278057;22;20135;-62
2021/10/14 12:39:19;;;;;;;2.95;0.90;;;;;;;;;;6278035;22;20427;-62
2021/10/14 12:41:55;;;;;;;1.55;0.90;;;;;;;;;;6278236;22;20143;-62
2021/10/14 12:44:35;;;;;;;1.58;0.63;;;;;;;;;;6277679;22;20495;-61
2021/10/14 12:47:03;;;;;;;0.82;0.68;;;;;;;;;;6277666;22;20155;-62
2021/10/14 12:52:14;;;;;;;1.08;0.95;;;;;;;;;;6288380;22;20158;-62
2021/10/14 12:54:40;;;;;;;0.80;0.70;;;;;;;;;;6277531;22;20131;-62
2021/10/14 12:57:05;;;;;;;2.00;0.70;;;;;;;;;;6277662;22;20292;-62
2021/10/14 12:59:32;;;;;;;1.38;0.80;;;;;;;;;;6277670;22;20631;-62
2021/10/14 13:02:00;;;;;;;2.53;1.08;;;;;;;;;;6277957;22;20139;-62
2021/10/14 13:04:26;;;;;;;1.75;0.80;;;;;;;;;;6276980;22;20139;-62
2021/10/14 13:06:52;;;;;;;0.77;0.63;;;;;;;;;;6277454;22;20177;-61
2021/10/14 13:09:18;;;;;;;1.20;0.60;;;;;;;;;;6276840;22;20481;-62
2021/10/14 13:11:45;;;;;;;2.28;0.80;;;;;;;;;;6276335;22;20135;-62
2021/10/14 13:14:12;;;;;;;0.80;0.57;;;;;;;;;;6276450;22;20142;-62
2021/10/14 13:16:38;;;;;;;0.55;0.52;;;;;;;;;;6276881;22;20158;-62
2021/10/14 13:19:05;;;;;;;0.80;0.80;;;;;;;;;;6277359;22;20171;-63
2021/10/14 13:21:31;;;;;;;0.68;0.50;;;;;;;;;;6277157;22;20574;-62
2021/10/14 13:23:57;;;;;;;1.15;0.80;;;;;;;;;;6276908;22;20139;-62
2021/10/14 13:26:24;;;;;;;1.75;0.73;;;;;;;;;;6277422;22;20241;-62
2021/10/14 13:28:50;;;;;;;1.33;0.70;;;;;;;;;;6277452;22;20144;-62
2021/10/14 13:31:16;;;;;;;0.93;0.73;;;;;;;;;;6277890;22;20142;-62
2021/10/14 13:33:44;;;;;;;3.35;0.85;;;;;;;;;;6277274;22;20174;-62
2021/10/14 13:36:13;;;;;;;0.90;0.75;;;;;;;;;;6276640;22;20163;-62
2021/10/14 13:38:46;;;;;;;1.25;1.02;;;;;;;;;;6276884;22;20202;-62
2021/10/14 13:41:14;;;;;;;1.45;0.80;;;;;;;;;;6277290;22;20135;-63
2021/10/14 13:43:45;;;;;;;1.77;0.90;;;;;;;;;;6276881;22;20153;-62
2021/10/14 13:46:11;;;;;;;2.10;1.10;;;;;;;;;;6277146;22;20139;-62
2021/10/14 13:48:37;;;;;;;1.60;0.70;;;;;;;;;;6276942;22;20144;-62
2021/10/14 13:51:04;;;;;;;0.75;0.63;;;;;;;;;;6277499;22;20236;-62
2021/10/14 13:53:30;;;;;;;1.58;0.70;;;;;;;;;;6276861;22;20154;-62
2021/10/14 13:55:56;;;;;;;1.27;0.70;;;;;;;;;;6277777;22;20187;-62
2021/10/14 13:58:22;;;;;;;1.70;0.77;;;;;;;;;;6277094;22;20183;-62
2021/10/14 14:00:48;;;;;;;1.08;0.60;;;;;;;;;;6276786;22;20218;-62
2021/10/14 14:03:15;;;;;;;0.75;0.60;;;;;;;;;;6277866;22;20154;-61
2021/10/14 14:05:44;;;;;;;2.58;0.73;;;;;;;;;;6279364;22;20192;-61
2021/10/14 14:08:10;;;;;;;1.25;0.80;;;;;;;;;;6277579;22;20147;-61
2021/10/14 14:10:36;;;;;;;1.83;0.70;;;;;;;;;;6276448;22;20206;-61
2021/10/14 14:13:02;;;;;;;0.85;0.63;;;;;;;;;;6277129;22;20152;-61
2021/10/14 14:15:31;;;;;;;1.30;0.88;;;;;;;;;;6278593;22;20504;-62
2021/10/14 14:17:58;;;;;;;2.47;1.20;;;;;;;;;;6278573;22;20177;-62
2021/10/14 14:20:24;;;;;;;2.28;0.90;;;;;;;;;;6278786;22;20223;-61
2021/10/14 14:22:50;;;;;;;1.20;0.77;;;;;;;;;;6278726;22;20151;-62
2021/10/14 14:25:16;;;;;;;1.15;0.85;;;;;;;;;;6278213;22;20155;-61
2021/10/14 14:27:42;;;;;;;1.77;1.10;;;;;;;;;;6278286;22;20166;-62
2021/10/14 14:30:09;;;;;;;0.80;0.75;;;;;;;;;;6277804;22;20161;-62
2021/10/14 14:32:36;;;;;;;1.10;0.80;;;;;;;;;;6277697;22;20144;-61
2021/10/14 14:35:02;;;;;;;1.17;0.98;;;;;;;;;;6277950;22;20238;-62
2021/10/14 14:37:30;;;;;;;2.05;1.17;;;;;;;;;;6277572;22;20171;-61
2021/10/14 14:39:57;;;;;;;2.05;0.88;;;;;;;;;;6278088;22;20146;-62
2021/10/14 14:42:23;;;;;;;1.70;0.80;;;;;;;;;;6278136;22;20153;-62